NKS213 KFLL-KJAX
Flight info
| Callsign | NKS213 |
|---|---|
| Flight time | N/A |
| Altitude | 30000 |
| Route | FRSBE2 STYMY ORL/N0443F310 HAINY QUBEN1 |
| Aircraft | A20N/M-SDE2E3FGHIRWXY/LB1 |
Departure
| Time | 2026-05-04 00:19 |
|---|---|
| Airport | Fort Lauderdale Hollywood International Airport (KFLL) |
Arrival
| Time | N/A |
|---|---|
| Airport | Jacksonville International Airport (KJAX) |
| Time | Latitude | Longitude | Altitude | Speed | Heading |
|---|---|---|---|---|---|
| 2026-05-03 23:38 | 26.06892 | -80.14298 | 40 ft | 0 kts | 0° |
| 2026-05-03 23:59 | 26.06887 | -80.14298 | 40 ft | 2 kts | 0° |
| 2026-05-03 23:59 | 26.06871 | -80.14297 | 41 ft | 2 kts | 359° |
| 2026-05-04 00:00 | 26.06854 | -80.14297 | 38 ft | 2 kts | 358° |
| 2026-05-04 00:00 | 26.06838 | -80.14296 | 41 ft | 2 kts | 357° |
| 2026-05-04 00:00 | 26.06823 | -80.14295 | 43 ft | 2 kts | 355° |
| 2026-05-04 00:00 | 26.06808 | -80.14294 | 44 ft | 2 kts | 353° |
| 2026-05-04 00:01 | 26.06793 | -80.14291 | 44 ft | 2 kts | 349° |
| 2026-05-04 00:01 | 26.06778 | -80.14288 | 46 ft | 2 kts | 342° |
| 2026-05-04 00:01 | 26.06763 | -80.14281 | 48 ft | 2 kts | 326° |
| 2026-05-04 00:01 | 26.06752 | -80.14270 | 47 ft | 2 kts | 285° |
| 2026-05-04 00:02 | 26.06751 | -80.14260 | 46 ft | 1 kts | 271° |
| 2026-05-04 00:02 | 26.06751 | -80.14259 | 48 ft | 0 kts | 270° |
| 2026-05-04 00:04 | 26.06751 | -80.14312 | 47 ft | 17 kts | 270° |
| 2026-05-04 00:05 | 26.06752 | -80.14463 | 43 ft | 24 kts | 274° |
| 2026-05-04 00:05 | 26.06756 | -80.14527 | 40 ft | 2 kts | 276° |
| 2026-05-04 00:05 | 26.06762 | -80.14591 | 39 ft | 15 kts | 276° |
| 2026-05-04 00:05 | 26.06767 | -80.14733 | 39 ft | 17 kts | 263° |
| 2026-05-04 00:06 | 26.06767 | -80.14897 | 39 ft | 25 kts | 270° |
| 2026-05-04 00:06 | 26.06764 | -80.15089 | 35 ft | 21 kts | 263° |
| 2026-05-04 00:06 | 26.06689 | -80.15163 | 37 ft | 10 kts | 235° |
| 2026-05-04 00:06 | 26.06698 | -80.15221 | 36 ft | 12 kts | 272° |
| 2026-05-04 00:07 | 26.06703 | -80.15402 | 33 ft | 31 kts | 273° |
| 2026-05-04 00:07 | 26.06697 | -80.15648 | 25 ft | 25 kts | 271° |
| 2026-05-04 00:07 | 26.06698 | -80.15677 | 25 ft | 0 kts | 270° |
| 2026-05-04 00:08 | 26.06697 | -80.15691 | 27 ft | 0 kts | 270° |
| 2026-05-04 00:09 | 26.06697 | -80.15693 | 27 ft | 3 kts | 270° |
| 2026-05-04 00:09 | 26.06698 | -80.15719 | 27 ft | 0 kts | 272° |
| 2026-05-04 00:12 | 26.06698 | -80.15724 | 26 ft | 3 kts | 272° |
| 2026-05-04 00:12 | 26.06701 | -80.15788 | 22 ft | 13 kts | 273° |
| 2026-05-04 00:12 | 26.06702 | -80.15802 | 20 ft | 0 kts | 273° |
| 2026-05-04 00:13 | 26.06701 | -80.15784 | 23 ft | 1 kts | 274° |
| 2026-05-04 00:13 | 26.06700 | -80.15777 | 24 ft | 0 kts | 274° |
| 2026-05-04 00:14 | 26.06699 | -80.15785 | 23 ft | 4 kts | 259° |
| 2026-05-04 00:14 | 26.06680 | -80.15812 | 20 ft | 0 kts | 214° |
| 2026-05-04 00:17 | 26.06679 | -80.15813 | 20 ft | 1 kts | 214° |
| 2026-05-04 00:17 | 26.06639 | -80.15822 | 18 ft | 11 kts | 178° |
| 2026-05-04 00:17 | 26.06590 | -80.15750 | 21 ft | 14 kts | 88° |
| 2026-05-04 00:17 | 26.06589 | -80.15718 | 23 ft | 0 kts | 89° |
| 2026-05-04 00:18 | 26.06591 | -80.15605 | 28 ft | 61 kts | 90° |
| 2026-05-04 00:18 | 26.06586 | -80.14691 | 50 ft | 168 kts | 90° |
| 2026-05-04 00:19 | 26.06531 | -80.13278 | 834 ft | 201 kts | 92° |
| 2026-05-04 00:19 | 26.06426 | -80.11576 | 1487 ft | 252 kts | 94° |
| 2026-05-04 00:19 | 26.06257 | -80.09456 | 2301 ft | 291 kts | 94° |
| 2026-05-04 00:19 | 26.06471 | -80.07029 | 2468 ft | 340 kts | 75° |
| 2026-05-04 00:20 | 26.07367 | -80.04460 | 2716 ft | 372 kts | 61° |
| 2026-05-04 00:20 | 26.08892 | -80.02073 | 3367 ft | 381 kts | 50° |